sensor_id;sensor_type;location;lat;lon;timestamp;P1;durP1;ratioP1;P2;durP2;ratioP2
36137;SDS011;67787;50.074;21.904;2023-05-07T00:00:48;23.70;;;12.50;;
36137;SDS011;67787;50.074;21.904;2023-05-07T00:03:21;22.10;;;12.30;;
36137;SDS011;67787;50.074;21.904;2023-05-07T00:05:50;22.70;;;13.00;;
36137;SDS011;67787;50.074;21.904;2023-05-07T00:08:17;20.60;;;10.20;;
36137;SDS011;67787;50.074;21.904;2023-05-07T00:10:46;22.40;;;12.10;;
36137;SDS011;67787;50.074;21.904;2023-05-07T00:13:14;23.40;;;13.60;;
36137;SDS011;67787;50.074;21.904;2023-05-07T00:15:42;25.80;;;16.30;;
36137;SDS011;67787;50.074;21.904;2023-05-07T00:18:10;25.30;;;13.70;;
36137;SDS011;67787;50.074;21.904;2023-05-07T00:20:37;25.80;;;13.20;;
36137;SDS011;67787;50.074;21.904;2023-05-07T00:23:05;23.90;;;12.70;;
36137;SDS011;67787;50.074;21.904;2023-05-07T00:25:34;24.50;;;12.20;;
36137;SDS011;67787;50.074;21.904;2023-05-07T00:28:02;26.30;;;13.10;;
36137;SDS011;67787;50.074;21.904;2023-05-07T00:30:50;24.10;;;12.50;;
36137;SDS011;67787;50.074;21.904;2023-05-07T00:33:18;23.90;;;13.30;;
36137;SDS011;67787;50.074;21.904;2023-05-07T00:35:47;23.80;;;12.20;;
36137;SDS011;67787;50.074;21.904;2023-05-07T00:38:17;24.10;;;13.40;;
36137;SDS011;67787;50.074;21.904;2023-05-07T00:40:44;24.20;;;13.50;;
36137;SDS011;67787;50.074;21.904;2023-05-07T00:43:12;27.50;;;14.40;;
36137;SDS011;67787;50.074;21.904;2023-05-07T00:45:40;26.50;;;13.60;;
36137;SDS011;67787;50.074;21.904;2023-05-07T00:48:08;24.20;;;13.80;;
36137;SDS011;67787;50.074;21.904;2023-05-07T00:50:36;24.00;;;12.90;;
36137;SDS011;67787;50.074;21.904;2023-05-07T00:53:04;25.70;;;12.60;;
36137;SDS011;67787;50.074;21.904;2023-05-07T00:55:33;25.40;;;13.70;;
36137;SDS011;67787;50.074;21.904;2023-05-07T00:58:02;24.70;;;14.20;;
36137;SDS011;67787;50.074;21.904;2023-05-07T01:00:30;24.70;;;13.10;;
36137;SDS011;67787;50.074;21.904;2023-05-07T01:02:57;25.60;;;13.50;;
36137;SDS011;67787;50.074;21.904;2023-05-07T01:05:26;25.60;;;13.00;;
36137;SDS011;67787;50.074;21.904;2023-05-07T01:07:56;24.70;;;13.30;;
36137;SDS011;67787;50.074;21.904;2023-05-07T01:10:25;25.40;;;13.10;;
36137;SDS011;67787;50.074;21.904;2023-05-07T01:12:53;22.60;;;12.50;;
36137;SDS011;67787;50.074;21.904;2023-05-07T01:15:21;25.10;;;13.40;;
36137;SDS011;67787;50.074;21.904;2023-05-07T01:17:49;23.80;;;12.90;;
36137;SDS011;67787;50.074;21.904;2023-05-07T01:20:17;28.00;;;14.20;;
36137;SDS011;67787;50.074;21.904;2023-05-07T01:22:47;26.70;;;14.20;;
36137;SDS011;67787;50.074;21.904;2023-05-07T01:25:16;27.80;;;14.50;;
36137;SDS011;67787;50.074;21.904;2023-05-07T01:27:45;25.00;;;14.10;;
36137;SDS011;67787;50.074;21.904;2023-05-07T01:30:14;26.50;;;14.60;;
36137;SDS011;67787;50.074;21.904;2023-05-07T01:32:53;26.10;;;15.10;;
36137;SDS011;67787;50.074;21.904;2023-05-07T01:35:29;26.20;;;14.80;;
36137;SDS011;67787;50.074;21.904;2023-05-07T01:38:00;25.90;;;14.70;;
36137;SDS011;67787;50.074;21.904;2023-05-07T01:40:31;22.20;;;11.70;;
36137;SDS011;67787;50.074;21.904;2023-05-07T01:43:04;24.70;;;13.70;;
36137;SDS011;67787;50.074;21.904;2023-05-07T01:45:33;25.10;;;12.90;;
36137;SDS011;67787;50.074;21.904;2023-05-07T01:48:02;23.60;;;11.50;;
36137;SDS011;67787;50.074;21.904;2023-05-07T01:50:30;23.00;;;12.10;;
36137;SDS011;67787;50.074;21.904;2023-05-07T01:52:59;22.90;;;12.40;;
36137;SDS011;67787;50.074;21.904;2023-05-07T01:55:29;23.70;;;11.00;;
36137;SDS011;67787;50.074;21.904;2023-05-07T01:57:56;23.80;;;12.80;;
36137;SDS011;67787;50.074;21.904;2023-05-07T02:00:24;24.40;;;14.50;;
36137;SDS011;67787;50.074;21.904;2023-05-07T02:02:54;25.40;;;14.50;;
36137;SDS011;67787;50.074;21.904;2023-05-07T02:05:22;23.00;;;11.80;;
36137;SDS011;67787;50.074;21.904;2023-05-07T02:07:50;24.90;;;12.90;;
36137;SDS011;67787;50.074;21.904;2023-05-07T02:10:18;24.70;;;12.70;;
36137;SDS011;67787;50.074;21.904;2023-05-07T02:12:46;25.10;;;13.40;;
36137;SDS011;67787;50.074;21.904;2023-05-07T02:15:13;23.70;;;11.70;;
36137;SDS011;67787;50.074;21.904;2023-05-07T02:18:01;22.50;;;11.80;;
36137;SDS011;67787;50.074;21.904;2023-05-07T02:20:30;23.70;;;12.40;;
36137;SDS011;67787;50.074;21.904;2023-05-07T02:22:58;26.40;;;13.60;;
36137;SDS011;67787;50.074;21.904;2023-05-07T02:25:26;23.30;;;12.10;;
36137;SDS011;67787;50.074;21.904;2023-05-07T02:27:54;23.80;;;11.80;;
36137;SDS011;67787;50.074;21.904;2023-05-07T02:30:22;25.60;;;12.80;;
36137;SDS011;67787;50.074;21.904;2023-05-07T02:32:49;24.00;;;12.50;;
36137;SDS011;67787;50.074;21.904;2023-05-07T02:35:17;24.40;;;12.90;;
36137;SDS011;67787;50.074;21.904;2023-05-07T02:37:45;23.30;;;11.90;;
36137;SDS011;67787;50.074;21.904;2023-05-07T02:40:13;26.20;;;12.90;;
36137;SDS011;67787;50.074;21.904;2023-05-07T02:42:41;23.10;;;12.10;;
36137;SDS011;67787;50.074;21.904;2023-05-07T02:45:09;22.70;;;11.90;;
36137;SDS011;67787;50.074;21.904;2023-05-07T02:47:37;27.10;;;12.40;;
36137;SDS011;67787;50.074;21.904;2023-05-07T02:50:05;21.90;;;10.10;;
36137;SDS011;67787;50.074;21.904;2023-05-07T02:52:33;24.30;;;14.60;;
36137;SDS011;67787;50.074;21.904;2023-05-07T02:55:01;25.50;;;13.70;;
36137;SDS011;67787;50.074;21.904;2023-05-07T02:57:30;23.40;;;11.20;;
36137;SDS011;67787;50.074;21.904;2023-05-07T02:59:57;23.60;;;10.30;;
36137;SDS011;67787;50.074;21.904;2023-05-07T03:02:26;23.00;;;11.60;;
36137;SDS011;67787;50.074;21.904;2023-05-07T03:04:54;21.40;;;9.20;;
36137;SDS011;67787;50.074;21.904;2023-05-07T03:07:22;23.00;;;9.30;;
36137;SDS011;67787;50.074;21.904;2023-05-07T03:09:49;21.70;;;8.50;;
36137;SDS011;67787;50.074;21.904;2023-05-07T03:12:17;24.00;;;9.60;;
36137;SDS011;67787;50.074;21.904;2023-05-07T03:14:45;25.30;;;9.00;;
36137;SDS011;67787;50.074;21.904;2023-05-07T03:17:12;22.70;;;8.90;;
36137;SDS011;67787;50.074;21.904;2023-05-07T03:19:40;23.00;;;9.90;;
36137;SDS011;67787;50.074;21.904;2023-05-07T03:22:08;29.60;;;17.10;;
36137;SDS011;67787;50.074;21.904;2023-05-07T03:24:35;25.70;;;12.00;;
36137;SDS011;67787;50.074;21.904;2023-05-07T03:27:04;25.80;;;11.10;;
36137;SDS011;67787;50.074;21.904;2023-05-07T03:29:32;25.50;;;11.50;;
36137;SDS011;67787;50.074;21.904;2023-05-07T03:31:59;26.60;;;12.60;;
36137;SDS011;67787;50.074;21.904;2023-05-07T03:34:27;26.20;;;11.60;;
36137;SDS011;67787;50.074;21.904;2023-05-07T03:36:55;27.00;;;12.10;;
36137;SDS011;67787;50.074;21.904;2023-05-07T03:39:23;24.20;;;12.10;;
36137;SDS011;67787;50.074;21.904;2023-05-07T03:41:52;24.80;;;10.90;;
36137;SDS011;67787;50.074;21.904;2023-05-07T03:44:20;26.70;;;10.80;;
36137;SDS011;67787;50.074;21.904;2023-05-07T03:46:47;25.20;;;12.20;;
36137;SDS011;67787;50.074;21.904;2023-05-07T03:49:15;25.20;;;10.40;;
36137;SDS011;67787;50.074;21.904;2023-05-07T03:51:43;25.70;;;10.00;;
36137;SDS011;67787;50.074;21.904;2023-05-07T03:54:11;32.50;;;19.00;;
36137;SDS011;67787;50.074;21.904;2023-05-07T03:56:39;32.10;;;18.10;;
36137;SDS011;67787;50.074;21.904;2023-05-07T03:59:07;27.30;;;13.90;;
36137;SDS011;67787;50.074;21.904;2023-05-07T04:01:35;25.90;;;11.70;;
36137;SDS011;67787;50.074;21.904;2023-05-07T04:04:03;25.60;;;11.50;;
36137;SDS011;67787;50.074;21.904;2023-05-07T04:06:31;22.60;;;11.40;;
36137;SDS011;67787;50.074;21.904;2023-05-07T04:08:59;24.60;;;10.40;;
36137;SDS011;67787;50.074;21.904;2023-05-07T04:11:27;25.40;;;10.40;;
36137;SDS011;67787;50.074;21.904;2023-05-07T04:13:55;31.60;;;11.60;;
36137;SDS011;67787;50.074;21.904;2023-05-07T04:16:23;25.60;;;11.30;;
36137;SDS011;67787;50.074;21.904;2023-05-07T04:18:51;26.90;;;10.70;;
36137;SDS011;67787;50.074;21.904;2023-05-07T04:21:19;25.30;;;10.80;;
36137;SDS011;67787;50.074;21.904;2023-05-07T04:23:48;27.40;;;10.90;;
36137;SDS011;67787;50.074;21.904;2023-05-07T04:26:17;28.30;;;17.50;;
36137;SDS011;67787;50.074;21.904;2023-05-07T04:28:45;26.10;;;13.70;;
36137;SDS011;67787;50.074;21.904;2023-05-07T04:31:12;25.50;;;12.10;;
36137;SDS011;67787;50.074;21.904;2023-05-07T04:33:40;24.10;;;10.50;;
36137;SDS011;67787;50.074;21.904;2023-05-07T04:36:08;24.60;;;10.50;;
36137;SDS011;67787;50.074;21.904;2023-05-07T04:38:36;23.50;;;10.10;;
36137;SDS011;67787;50.074;21.904;2023-05-07T04:41:05;23.70;;;10.30;;
36137;SDS011;67787;50.074;21.904;2023-05-07T04:43:33;25.40;;;9.70;;
36137;SDS011;67787;50.074;21.904;2023-05-07T04:46:01;23.30;;;10.10;;
36137;SDS011;67787;50.074;21.904;2023-05-07T04:48:29;20.90;;;9.20;;
36137;SDS011;67787;50.074;21.904;2023-05-07T04:50:57;21.20;;;9.40;;
36137;SDS011;67787;50.074;21.904;2023-05-07T04:53:25;21.30;;;9.10;;
36137;SDS011;67787;50.074;21.904;2023-05-07T04:55:56;22.40;;;9.50;;
36137;SDS011;67787;50.074;21.904;2023-05-07T04:58:25;19.20;;;8.80;;
36137;SDS011;67787;50.074;21.904;2023-05-07T05:00:52;24.30;;;12.80;;
36137;SDS011;67787;50.074;21.904;2023-05-07T05:03:21;25.90;;;14.40;;
36137;SDS011;67787;50.074;21.904;2023-05-07T05:05:49;22.90;;;11.30;;
36137;SDS011;67787;50.074;21.904;2023-05-07T05:08:19;21.30;;;10.10;;
36137;SDS011;67787;50.074;21.904;2023-05-07T05:10:47;21.50;;;10.10;;
36137;SDS011;67787;50.074;21.904;2023-05-07T05:13:17;20.70;;;8.80;;
36137;SDS011;67787;50.074;21.904;2023-05-07T05:15:45;22.80;;;10.80;;
36137;SDS011;67787;50.074;21.904;2023-05-07T05:18:13;20.60;;;8.90;;
36137;SDS011;67787;50.074;21.904;2023-05-07T05:20:41;22.90;;;9.20;;
36137;SDS011;67787;50.074;21.904;2023-05-07T05:23:09;21.00;;;9.20;;
36137;SDS011;67787;50.074;21.904;2023-05-07T05:25:37;22.20;;;9.00;;
36137;SDS011;67787;50.074;21.904;2023-05-07T05:28:06;22.10;;;8.70;;
36137;SDS011;67787;50.074;21.904;2023-05-07T05:30:34;21.40;;;9.10;;
36137;SDS011;67787;50.074;21.904;2023-05-07T05:33:03;23.30;;;11.10;;
36137;SDS011;67787;50.074;21.904;2023-05-07T05:35:31;30.70;;;12.60;;
36137;SDS011;67787;50.074;21.904;2023-05-07T05:37:59;22.50;;;9.50;;
36137;SDS011;67787;50.074;21.904;2023-05-07T05:40:27;21.20;;;9.00;;
36137;SDS011;67787;50.074;21.904;2023-05-07T05:42:54;18.10;;;8.60;;
36137;SDS011;67787;50.074;21.904;2023-05-07T05:45:22;23.80;;;9.40;;
36137;SDS011;67787;50.074;21.904;2023-05-07T05:47:50;20.70;;;8.50;;
36137;SDS011;67787;50.074;21.904;2023-05-07T05:50:18;17.80;;;7.60;;
36137;SDS011;67787;50.074;21.904;2023-05-07T05:52:46;21.60;;;9.10;;
36137;SDS011;67787;50.074;21.904;2023-05-07T05:55:14;20.80;;;8.30;;
36137;SDS011;67787;50.074;21.904;2023-05-07T05:57:42;19.20;;;8.60;;
36137;SDS011;67787;50.074;21.904;2023-05-07T06:00:10;20.60;;;8.90;;
36137;SDS011;67787;50.074;21.904;2023-05-07T06:02:39;19.50;;;9.10;;
36137;SDS011;67787;50.074;21.904;2023-05-07T06:05:08;20.70;;;8.50;;
36137;SDS011;67787;50.074;21.904;2023-05-07T06:07:36;20.00;;;8.30;;
36137;SDS011;67787;50.074;21.904;2023-05-07T06:10:04;25.20;;;16.60;;
36137;SDS011;67787;50.074;21.904;2023-05-07T06:12:32;22.80;;;9.90;;
36137;SDS011;67787;50.074;21.904;2023-05-07T06:15:00;19.80;;;8.70;;
36137;SDS011;67787;50.074;21.904;2023-05-07T06:17:29;18.50;;;7.80;;
36137;SDS011;67787;50.074;21.904;2023-05-07T06:19:58;18.90;;;7.40;;
36137;SDS011;67787;50.074;21.904;2023-05-07T06:22:25;19.90;;;8.10;;
36137;SDS011;67787;50.074;21.904;2023-05-07T06:24:53;17.10;;;6.80;;
36137;SDS011;67787;50.074;21.904;2023-05-07T06:27:21;18.00;;;7.40;;
36137;SDS011;67787;50.074;21.904;2023-05-07T06:29:48;17.10;;;7.60;;
36137;SDS011;67787;50.074;21.904;2023-05-07T06:32:17;18.00;;;7.10;;
36137;SDS011;67787;50.074;21.904;2023-05-07T06:34:45;16.60;;;7.10;;
36137;SDS011;67787;50.074;21.904;2023-05-07T06:37:13;18.50;;;8.10;;
36137;SDS011;67787;50.074;21.904;2023-05-07T06:39:41;21.50;;;13.20;;
36137;SDS011;67787;50.074;21.904;2023-05-07T06:42:09;20.40;;;9.00;;
36137;SDS011;67787;50.074;21.904;2023-05-07T06:44:36;18.10;;;8.20;;
36137;SDS011;67787;50.074;21.904;2023-05-07T06:47:04;20.70;;;9.20;;
36137;SDS011;67787;50.074;21.904;2023-05-07T06:49:32;18.50;;;8.40;;
36137;SDS011;67787;50.074;21.904;2023-05-07T06:52:00;20.50;;;7.80;;
36137;SDS011;67787;50.074;21.904;2023-05-07T06:54:28;18.70;;;7.40;;
36137;SDS011;67787;50.074;21.904;2023-05-07T06:56:56;21.30;;;8.90;;
36137;SDS011;67787;50.074;21.904;2023-05-07T06:59:24;20.00;;;8.60;;
36137;SDS011;67787;50.074;21.904;2023-05-07T07:01:52;18.00;;;8.10;;
36137;SDS011;67787;50.074;21.904;2023-05-07T07:04:20;21.60;;;8.20;;
36137;SDS011;67787;50.074;21.904;2023-05-07T07:06:51;21.40;;;8.10;;
36137;SDS011;67787;50.074;21.904;2023-05-07T07:09:19;20.50;;;9.30;;
36137;SDS011;67787;50.074;21.904;2023-05-07T07:11:50;18.30;;;8.00;;
36137;SDS011;67787;50.074;21.904;2023-05-07T07:14:18;20.70;;;8.10;;
36137;SDS011;67787;50.074;21.904;2023-05-07T07:16:46;22.70;;;8.00;;
36137;SDS011;67787;50.074;21.904;2023-05-07T07:19:14;20.30;;;7.90;;
36137;SDS011;67787;50.074;21.904;2023-05-07T07:21:42;18.80;;;7.70;;
36137;SDS011;67787;50.074;21.904;2023-05-07T07:24:10;15.00;;;6.70;;
36137;SDS011;67787;50.074;21.904;2023-05-07T07:26:38;16.80;;;7.10;;
36137;SDS011;67787;50.074;21.904;2023-05-07T07:29:07;17.50;;;7.40;;
36137;SDS011;67787;50.074;21.904;2023-05-07T07:31:35;19.30;;;8.20;;
36137;SDS011;67787;50.074;21.904;2023-05-07T07:34:03;24.40;;;9.10;;
36137;SDS011;67787;50.074;21.904;2023-05-07T07:36:31;21.90;;;9.20;;
36137;SDS011;67787;50.074;21.904;2023-05-07T07:39:12;19.80;;;9.60;;
36137;SDS011;67787;50.074;21.904;2023-05-07T07:41:41;19.20;;;9.00;;
36137;SDS011;67787;50.074;21.904;2023-05-07T07:44:09;16.70;;;7.40;;
36137;SDS011;67787;50.074;21.904;2023-05-07T07:49:10;18.20;;;7.30;;
36137;SDS011;67787;50.074;21.904;2023-05-07T07:51:38;17.40;;;7.00;;
36137;SDS011;67787;50.074;21.904;2023-05-07T07:54:07;15.90;;;7.10;;
36137;SDS011;67787;50.074;21.904;2023-05-07T07:56:34;16.70;;;7.10;;
36137;SDS011;67787;50.074;21.904;2023-05-07T07:59:02;17.50;;;7.20;;
36137;SDS011;67787;50.074;21.904;2023-05-07T08:01:30;18.90;;;8.20;;
36137;SDS011;67787;50.074;21.904;2023-05-07T08:03:58;16.80;;;7.30;;
36137;SDS011;67787;50.074;21.904;2023-05-07T08:06:27;18.70;;;7.50;;
36137;SDS011;67787;50.074;21.904;2023-05-07T08:08:55;15.30;;;7.50;;
36137;SDS011;67787;50.074;21.904;2023-05-07T08:11:23;23.60;;;11.80;;
36137;SDS011;67787;50.074;21.904;2023-05-07T08:13:51;23.80;;;11.50;;
36137;SDS011;67787;50.074;21.904;2023-05-07T08:16:19;23.80;;;10.80;;
36137;SDS011;67787;50.074;21.904;2023-05-07T08:18:52;19.40;;;9.50;;
36137;SDS011;67787;50.074;21.904;2023-05-07T08:21:21;19.30;;;8.10;;
36137;SDS011;67787;50.074;21.904;2023-05-07T08:23:49;17.60;;;7.40;;
36137;SDS011;67787;50.074;21.904;2023-05-07T08:26:17;21.30;;;9.80;;
36137;SDS011;67787;50.074;21.904;2023-05-07T08:28:45;23.00;;;11.50;;
36137;SDS011;67787;50.074;21.904;2023-05-07T08:31:13;29.80;;;15.70;;
36137;SDS011;67787;50.074;21.904;2023-05-07T08:33:42;28.40;;;13.30;;
36137;SDS011;67787;50.074;21.904;2023-05-07T08:36:09;25.30;;;11.60;;
36137;SDS011;67787;50.074;21.904;2023-05-07T08:38:37;27.00;;;11.10;;
36137;SDS011;67787;50.074;21.904;2023-05-07T08:41:09;20.40;;;8.30;;
36137;SDS011;67787;50.074;21.904;2023-05-07T08:43:37;17.80;;;8.10;;
36137;SDS011;67787;50.074;21.904;2023-05-07T08:46:10;17.90;;;7.50;;
36137;SDS011;67787;50.074;21.904;2023-05-07T08:48:39;18.10;;;7.60;;
36137;SDS011;67787;50.074;21.904;2023-05-07T08:51:08;14.70;;;6.50;;
36137;SDS011;67787;50.074;21.904;2023-05-07T08:53:41;14.10;;;5.70;;
36137;SDS011;67787;50.074;21.904;2023-05-07T08:56:09;19.80;;;6.40;;
36137;SDS011;67787;50.074;21.904;2023-05-07T08:58:39;15.60;;;6.80;;
36137;SDS011;67787;50.074;21.904;2023-05-07T09:01:08;18.50;;;7.50;;
36137;SDS011;67787;50.074;21.904;2023-05-07T09:06:11;15.40;;;6.40;;
36137;SDS011;67787;50.074;21.904;2023-05-07T09:08:40;16.30;;;7.90;;
36137;SDS011;67787;50.074;21.904;2023-05-07T09:11:07;15.80;;;6.30;;
36137;SDS011;67787;50.074;21.904;2023-05-07T09:13:38;18.90;;;6.30;;
36137;SDS011;67787;50.074;21.904;2023-05-07T09:16:11;13.40;;;5.50;;
36137;SDS011;67787;50.074;21.904;2023-05-07T09:18:43;13.90;;;5.80;;
36137;SDS011;67787;50.074;21.904;2023-05-07T09:21:15;13.90;;;5.80;;
36137;SDS011;67787;50.074;21.904;2023-05-07T09:23:51;14.80;;;6.10;;
36137;SDS011;67787;50.074;21.904;2023-05-07T09:26:21;16.10;;;5.50;;
36137;SDS011;67787;50.074;21.904;2023-05-07T09:28:49;12.30;;;5.60;;
36137;SDS011;67787;50.074;21.904;2023-05-07T09:31:17;12.60;;;5.70;;
36137;SDS011;67787;50.074;21.904;2023-05-07T09:33:49;16.70;;;6.40;;
36137;SDS011;67787;50.074;21.904;2023-05-07T09:36:17;12.90;;;6.40;;
36137;SDS011;67787;50.074;21.904;2023-05-07T09:38:45;14.50;;;5.90;;
36137;SDS011;67787;50.074;21.904;2023-05-07T09:41:15;15.20;;;5.90;;
36137;SDS011;67787;50.074;21.904;2023-05-07T09:43:42;15.80;;;5.70;;
36137;SDS011;67787;50.074;21.904;2023-05-07T09:46:14;14.40;;;5.20;;
36137;SDS011;67787;50.074;21.904;2023-05-07T09:48:45;14.40;;;6.10;;
36137;SDS011;67787;50.074;21.904;2023-05-07T09:53:54;16.00;;;6.40;;
36137;SDS011;67787;50.074;21.904;2023-05-07T09:56:24;14.70;;;6.10;;
36137;SDS011;67787;50.074;21.904;2023-05-07T09:58:54;13.40;;;6.30;;
36137;SDS011;67787;50.074;21.904;2023-05-07T10:01:25;14.10;;;6.40;;
36137;SDS011;67787;50.074;21.904;2023-05-07T10:03:54;15.20;;;5.90;;
36137;SDS011;67787;50.074;21.904;2023-05-07T10:06:24;20.30;;;7.90;;
36137;SDS011;67787;50.074;21.904;2023-05-07T10:08:53;18.90;;;7.80;;
36137;SDS011;67787;50.074;21.904;2023-05-07T10:11:23;19.70;;;7.50;;
36137;SDS011;67787;50.074;21.904;2023-05-07T10:13:51;19.50;;;7.80;;
36137;SDS011;67787;50.074;21.904;2023-05-07T10:16:20;19.20;;;7.60;;
36137;SDS011;67787;50.074;21.904;2023-05-07T10:18:48;22.20;;;9.20;;
36137;SDS011;67787;50.074;21.904;2023-05-07T10:21:18;24.70;;;9.80;;
36137;SDS011;67787;50.074;21.904;2023-05-07T10:24:33;23.40;;;9.70;;
36137;SDS011;67787;50.074;21.904;2023-05-07T10:26:48;20.40;;;8.00;;
36137;SDS011;67787;50.074;21.904;2023-05-07T10:29:22;24.10;;;10.30;;
36137;SDS011;67787;50.074;21.904;2023-05-07T10:35:01;19.80;;;8.00;;
36137;SDS011;67787;50.074;21.904;2023-05-07T10:37:33;18.50;;;7.20;;
36137;SDS011;67787;50.074;21.904;2023-05-07T10:40:02;20.10;;;8.50;;
36137;SDS011;67787;50.074;21.904;2023-05-07T10:42:30;19.20;;;7.30;;
36137;SDS011;67787;50.074;21.904;2023-05-07T10:44:58;19.40;;;8.20;;
36137;SDS011;67787;50.074;21.904;2023-05-07T10:51:17;25.00;;;11.50;;
36137;SDS011;67787;50.074;21.904;2023-05-07T10:54:08;24.70;;;11.00;;
36137;SDS011;67787;50.074;21.904;2023-05-07T10:56:37;17.40;;;6.70;;
36137;SDS011;67787;50.074;21.904;2023-05-07T11:01:58;12.80;;;6.10;;
36137;SDS011;67787;50.074;21.904;2023-05-07T11:04:30;14.40;;;6.20;;
36137;SDS011;67787;50.074;21.904;2023-05-07T11:15:07;16.90;;;7.30;;
36137;SDS011;67787;50.074;21.904;2023-05-07T11:17:53;14.70;;;5.60;;
36137;SDS011;67787;50.074;21.904;2023-05-07T11:26:00;15.80;;;6.00;;
36137;SDS011;67787;50.074;21.904;2023-05-07T11:28:28;14.10;;;5.80;;
36137;SDS011;67787;50.074;21.904;2023-05-07T11:30:57;12.00;;;5.50;;
36137;SDS011;67787;50.074;21.904;2023-05-07T11:33:31;9.30;;;4.90;;
36137;SDS011;67787;50.074;21.904;2023-05-07T11:36:00;10.80;;;4.90;;
36137;SDS011;67787;50.074;21.904;2023-05-07T11:38:36;13.00;;;5.80;;
36137;SDS011;67787;50.074;21.904;2023-05-07T11:41:09;16.40;;;6.10;;
36137;SDS011;67787;50.074;21.904;2023-05-07T11:43:37;14.20;;;5.60;;
36137;SDS011;67787;50.074;21.904;2023-05-07T11:46:10;13.30;;;5.80;;
36137;SDS011;67787;50.074;21.904;2023-05-07T11:48:39;16.80;;;6.90;;
36137;SDS011;67787;50.074;21.904;2023-05-07T11:51:09;15.50;;;6.60;;
36137;SDS011;67787;50.074;21.904;2023-05-07T11:53:41;16.00;;;6.50;;
36137;SDS011;67787;50.074;21.904;2023-05-07T11:56:11;14.50;;;5.70;;
36137;SDS011;67787;50.074;21.904;2023-05-07T11:58:41;13.50;;;5.90;;
36137;SDS011;67787;50.074;21.904;2023-05-07T12:01:10;13.40;;;5.30;;
36137;SDS011;67787;50.074;21.904;2023-05-07T12:03:42;11.00;;;5.40;;
36137;SDS011;67787;50.074;21.904;2023-05-07T12:06:15;16.20;;;6.90;;
36137;SDS011;67787;50.074;21.904;2023-05-07T12:08:44;13.10;;;5.30;;
36137;SDS011;67787;50.074;21.904;2023-05-07T12:11:15;11.40;;;5.60;;
36137;SDS011;67787;50.074;21.904;2023-05-07T12:13:49;17.20;;;6.40;;
36137;SDS011;67787;50.074;21.904;2023-05-07T12:16:18;19.10;;;6.50;;
36137;SDS011;67787;50.074;21.904;2023-05-07T12:18:46;17.30;;;7.60;;
36137;SDS011;67787;50.074;21.904;2023-05-07T12:21:15;15.50;;;6.20;;
36137;SDS011;67787;50.074;21.904;2023-05-07T12:23:44;13.70;;;5.40;;
36137;SDS011;67787;50.074;21.904;2023-05-07T12:26:12;10.80;;;4.90;;
36137;SDS011;67787;50.074;21.904;2023-05-07T12:28:40;15.70;;;6.20;;
36137;SDS011;67787;50.074;21.904;2023-05-07T12:31:09;13.70;;;6.00;;
36137;SDS011;67787;50.074;21.904;2023-05-07T12:33:37;13.90;;;5.30;;
36137;SDS011;67787;50.074;21.904;2023-05-07T12:36:06;11.00;;;5.20;;
36137;SDS011;67787;50.074;21.904;2023-05-07T12:38:38;11.60;;;5.10;;
36137;SDS011;67787;50.074;21.904;2023-05-07T12:41:08;11.10;;;5.10;;
36137;SDS011;67787;50.074;21.904;2023-05-07T12:43:38;9.70;;;4.70;;
36137;SDS011;67787;50.074;21.904;2023-05-07T12:46:07;12.70;;;5.30;;
36137;SDS011;67787;50.074;21.904;2023-05-07T12:48:37;10.50;;;4.70;;
36137;SDS011;67787;50.074;21.904;2023-05-07T12:51:06;13.90;;;4.90;;
36137;SDS011;67787;50.074;21.904;2023-05-07T12:53:39;12.50;;;5.10;;
36137;SDS011;67787;50.074;21.904;2023-05-07T12:56:12;11.00;;;4.50;;
36137;SDS011;67787;50.074;21.904;2023-05-07T12:58:43;10.40;;;4.20;;
36137;SDS011;67787;50.074;21.904;2023-05-07T13:01:11;14.10;;;5.60;;
36137;SDS011;67787;50.074;21.904;2023-05-07T13:03:47;13.60;;;5.10;;
36137;SDS011;67787;50.074;21.904;2023-05-07T13:06:17;11.90;;;4.50;;
36137;SDS011;67787;50.074;21.904;2023-05-07T13:08:46;11.40;;;4.50;;
36137;SDS011;67787;50.074;21.904;2023-05-07T13:11:14;9.70;;;3.60;;
36137;SDS011;67787;50.074;21.904;2023-05-07T13:13:41;11.70;;;4.10;;
36137;SDS011;67787;50.074;21.904;2023-05-07T13:16:10;14.10;;;4.90;;
36137;SDS011;67787;50.074;21.904;2023-05-07T13:18:39;12.00;;;4.60;;
36137;SDS011;67787;50.074;21.904;2023-05-07T13:21:08;10.20;;;4.50;;
36137;SDS011;67787;50.074;21.904;2023-05-07T13:23:38;11.30;;;4.30;;
36137;SDS011;67787;50.074;21.904;2023-05-07T13:26:06;11.60;;;4.30;;
36137;SDS011;67787;50.074;21.904;2023-05-07T13:28:53;10.30;;;4.30;;
36137;SDS011;67787;50.074;21.904;2023-05-07T13:31:21;10.00;;;4.00;;
36137;SDS011;67787;50.074;21.904;2023-05-07T13:33:50;10.40;;;4.30;;
36137;SDS011;67787;50.074;21.904;2023-05-07T13:36:18;10.10;;;4.40;;
36137;SDS011;67787;50.074;21.904;2023-05-07T13:38:46;8.70;;;3.60;;
36137;SDS011;67787;50.074;21.904;2023-05-07T13:41:14;8.50;;;3.90;;
36137;SDS011;67787;50.074;21.904;2023-05-07T13:43:42;10.20;;;4.30;;
36137;SDS011;67787;50.074;21.904;2023-05-07T13:46:10;11.30;;;3.70;;
36137;SDS011;67787;50.074;21.904;2023-05-07T13:48:38;9.70;;;3.50;;
36137;SDS011;67787;50.074;21.904;2023-05-07T13:51:06;6.10;;;3.30;;
36137;SDS011;67787;50.074;21.904;2023-05-07T13:53:35;6.20;;;3.50;;
36137;SDS011;67787;50.074;21.904;2023-05-07T13:56:03;8.70;;;4.00;;
36137;SDS011;67787;50.074;21.904;2023-05-07T13:58:32;8.20;;;3.70;;
36137;SDS011;67787;50.074;21.904;2023-05-07T14:01:00;9.20;;;4.00;;
36137;SDS011;67787;50.074;21.904;2023-05-07T14:03:28;11.80;;;4.00;;
36137;SDS011;67787;50.074;21.904;2023-05-07T14:05:57;8.70;;;3.70;;
36137;SDS011;67787;50.074;21.904;2023-05-07T14:08:27;10.50;;;3.90;;
36137;SDS011;67787;50.074;21.904;2023-05-07T14:10:58;9.50;;;3.80;;
36137;SDS011;67787;50.074;21.904;2023-05-07T14:13:26;8.40;;;3.10;;
36137;SDS011;67787;50.074;21.904;2023-05-07T14:15:55;8.40;;;3.60;;
36137;SDS011;67787;50.074;21.904;2023-05-07T14:18:23;7.50;;;2.90;;
36137;SDS011;67787;50.074;21.904;2023-05-07T14:20:51;6.20;;;3.20;;
36137;SDS011;67787;50.074;21.904;2023-05-07T14:23:18;8.50;;;3.00;;
36137;SDS011;67787;50.074;21.904;2023-05-07T14:25:47;6.20;;;3.20;;
36137;SDS011;67787;50.074;21.904;2023-05-07T14:28:15;5.70;;;3.00;;
36137;SDS011;67787;50.074;21.904;2023-05-07T14:30:42;8.30;;;3.20;;
36137;SDS011;67787;50.074;21.904;2023-05-07T14:33:11;5.40;;;2.80;;
36137;SDS011;67787;50.074;21.904;2023-05-07T14:35:39;10.40;;;3.90;;
36137;SDS011;67787;50.074;21.904;2023-05-07T14:38:06;8.80;;;3.60;;
36137;SDS011;67787;50.074;21.904;2023-05-07T14:40:35;9.40;;;3.80;;
36137;SDS011;67787;50.074;21.904;2023-05-07T14:43:02;21.20;;;8.40;;
36137;SDS011;67787;50.074;21.904;2023-05-07T14:45:30;12.30;;;4.40;;
36137;SDS011;67787;50.074;21.904;2023-05-07T14:47:58;7.70;;;3.50;;
36137;SDS011;67787;50.074;21.904;2023-05-07T14:50:29;10.90;;;3.80;;
36137;SDS011;67787;50.074;21.904;2023-05-07T14:53:04;10.70;;;4.40;;
36137;SDS011;67787;50.074;21.904;2023-05-07T14:55:33;24.20;;;10.00;;
36137;SDS011;67787;50.074;21.904;2023-05-07T14:58:01;28.90;;;15.40;;
36137;SDS011;67787;50.074;21.904;2023-05-07T15:00:30;14.10;;;5.00;;